Time;durP1;ratioP1;P1;durP2;ratioP2;P2;SDS_P1;SDS_P2;PMS_P1;PMS_P2;Temp;Humidity;BMP_temperature;BMP_pressure;BME280_temperature;BME280_humidity;BME280_pressure;Samples;Min_cycle;Max_cycle;Signal;HPM_P1;HPM_P2
2021/07/18 00:01:32;;;;;;;8.05;7.07;;;24.00;80.40;;;;;;5075116;28;20111;-85
2021/07/18 00:03:57;;;;;;;8.18;7.30;;;24.00;80.20;;;;;;5091319;28;20036;-84
2021/07/18 00:06:23;;;;;;;9.30;7.28;;;24.00;80.20;;;;;;5075124;28;20470;-85
2021/07/18 00:08:49;;;;;;;8.52;7.18;;;24.00;80.10;;;;;;5075791;28;20463;-84
2021/07/18 00:11:14;;;;;;;7.93;6.90;;;24.00;80.10;;;;;;5075370;28;20413;-84
2021/07/18 00:13:40;;;;;;;8.75;7.63;;;24.00;80.00;;;;;;5091319;28;20458;-84
2021/07/18 00:16:06;;;;;;;8.93;7.07;;;24.00;79.90;;;;;;5075773;28;20045;-84
2021/07/18 00:18:32;;;;;;;9.05;7.40;;;24.00;80.00;;;;;;5075469;28;20081;-84
2021/07/18 00:20:57;;;;;;;8.55;7.30;;;24.00;80.00;;;;;;5090862;28;20047;-84
2021/07/18 00:23:23;;;;;;;10.48;7.75;;;23.90;80.00;;;;;;5090937;28;20124;-85
2021/07/18 00:25:50;;;;;;;8.75;7.45;;;23.80;80.20;;;;;;5090461;28;20089;-84
2021/07/18 00:28:15;;;;;;;9.73;7.57;;;23.80;80.40;;;;;;5074967;28;20040;-84
2021/07/18 00:30:41;;;;;;;9.57;7.38;;;23.70;80.60;;;;;;5090808;28;20489;-83
2021/07/18 00:33:07;;;;;;;8.98;7.55;;;23.70;81.40;;;;;;5075460;28;20040;-84
2021/07/18 00:35:34;;;;;;;11.48;8.75;;;23.70;80.90;;;;;;5074970;28;20036;-84
2021/07/18 00:38:00;;;;;;;15.38;11.80;;;23.70;81.00;;;;;;5057082;28;20113;-84
2021/07/18 00:40:25;;;;;;;20.33;17.02;;;23.70;81.00;;;;;;5056800;28;20064;-83
2021/07/18 00:42:51;;;;;;;24.42;20.73;;;23.80;81.10;;;;;;5057414;28;20123;-83
2021/07/18 00:45:17;;;;;;;25.13;20.45;;;23.80;81.00;;;;;;5069805;28;20043;-85
2021/07/18 00:47:44;;;;;;;18.25;15.60;;;23.80;80.90;;;;;;5045218;28;20486;-83
2021/07/18 00:50:15;;;;;;;15.10;12.60;;;23.80;80.80;;;;;;5036444;28;20068;-84
2021/07/18 00:52:41;;;;;;;14.07;11.85;;;23.80;80.80;;;;;;5036388;28;20039;-83
2021/07/18 00:55:08;;;;;;;38.80;31.73;;;23.80;80.70;;;;;;5036842;28;20044;-84
2021/07/18 00:57:36;;;;;;;21.02;18.73;;;23.80;80.80;;;;;;5036746;28;20037;-83
2021/07/18 01:00:08;;;;;;;16.90;14.60;;;23.70;80.70;;;;;;5054402;28;20032;-84
2021/07/18 01:02:35;;;;;;;16.27;14.13;;;23.70;80.80;;;;;;5054228;28;20040;-84
2021/07/18 01:05:01;;;;;;;13.30;11.25;;;23.70;80.90;;;;;;5036702;28;20040;-83
2021/07/18 01:07:28;;;;;;;15.43;12.82;;;23.70;81.10;;;;;;5054018;28;20103;-85
2021/07/18 01:09:54;;;;;;;17.85;15.43;;;23.60;81.40;;;;;;5054063;28;20536;-84
2021/07/18 01:12:20;;;;;;;18.92;16.40;;;23.60;81.80;;;;;;5035722;28;20359;-83
2021/07/18 01:14:48;;;;;;;15.18;12.48;;;23.70;81.90;;;;;;5036247;28;20052;-83
2021/07/18 01:17:15;;;;;;;15.20;10.70;;;23.70;81.80;;;;;;5036730;28;20041;-83
2021/07/18 01:19:41;;;;;;;10.93;9.15;;;23.70;81.80;;;;;;5054381;28;20354;-83
2021/07/18 01:22:07;;;;;;;10.75;8.70;;;23.70;81.70;;;;;;5054595;28;20033;-84
2021/07/18 01:24:33;;;;;;;10.02;8.70;;;23.70;81.60;;;;;;5052438;28;20612;-83
2021/07/18 01:27:01;;;;;;;9.98;7.88;;;23.60;81.70;;;;;;5036451;28;20045;-84
2021/07/18 01:29:28;;;;;;;9.23;7.45;;;23.50;81.80;;;;;;5036457;28;20124;-84
2021/07/18 01:31:54;;;;;;;8.40;7.07;;;23.50;82.10;;;;;;5036063;28;20033;-84
2021/07/18 01:34:20;;;;;;;10.35;7.50;;;23.50;82.20;;;;;;5036516;28;20107;-84
2021/07/18 01:36:45;;;;;;;8.82;7.20;;;23.40;82.30;;;;;;5035983;28;20403;-84
2021/07/18 01:39:13;;;;;;;9.25;7.57;;;23.40;82.60;;;;;;5037163;28;20029;-83
2021/07/18 01:41:39;;;;;;;8.68;7.55;;;23.30;83.00;;;;;;5055874;28;20072;-84
2021/07/18 01:44:06;;;;;;;8.10;7.10;;;23.40;83.10;;;;;;5057829;28;20028;-84
2021/07/18 01:46:33;;;;;;;8.18;6.72;;;23.40;83.00;;;;;;5059996;28;20036;-84
2021/07/18 01:48:58;;;;;;;7.75;6.78;;;23.40;83.00;;;;;;5078162;28;20075;-84
2021/07/18 01:51:29;;;;;;;7.65;6.43;;;23.40;83.00;;;;;;5060602;28;20033;-84
2021/07/18 01:53:58;;;;;;;;;;;23.50;83.00;;;;;;5078319;28;20035;-86
2021/07/18 01:56:25;;;;;;;8.73;6.72;;;23.50;87.20;;;;;;5077734;28;19911;-84
2021/07/18 01:58:52;;;;;;;8.90;7.18;;;23.50;83.00;;;;;;5078096;28;20082;-85
2021/07/18 02:01:24;;;;;;;9.07;6.82;;;23.50;82.90;;;;;;5059788;28;20044;-85
2021/07/18 02:03:50;;;;;;;8.85;7.28;;;23.50;82.90;;;;;;5059701;28;20036;-84
2021/07/18 02:06:16;;;;;;;10.57;7.38;;;23.40;83.20;;;;;;5059700;28;20450;-84
2021/07/18 02:08:42;;;;;;;10.38;7.50;;;23.40;83.50;;;;;;5059220;28;20071;-84
2021/07/18 02:11:08;;;;;;;8.52;7.20;;;23.40;83.50;;;;;;5077157;28;20379;-84
2021/07/18 02:13:34;;;;;;;9.02;7.47;;;23.40;83.90;;;;;;5059854;28;20037;-86
2021/07/18 02:16:02;;;;;;;8.93;7.30;;;23.40;83.90;;;;;;5059512;28;20469;-84
2021/07/18 02:18:29;;;;;;;7.80;6.57;;;23.30;84.20;;;;;;5059499;28;20099;-84
2021/07/18 02:20:56;;;;;;;9.45;7.90;;;23.20;84.30;;;;;;5077587;28;20055;-84
2021/07/18 02:23:21;;;;;;;9.90;7.40;;;23.20;85.10;;;;;;5076868;28;20033;-85
2021/07/18 02:25:48;;;;;;;10.23;7.20;;;23.30;84.70;;;;;;5093167;28;20474;-85
2021/07/18 02:28:14;;;;;;;10.85;7.22;;;23.30;85.00;;;;;;5077243;28;20366;-84
2021/07/18 02:30:40;;;;;;;9.93;7.47;;;23.30;85.10;;;;;;5059539;28;20032;-84
2021/07/18 02:33:06;;;;;;;8.77;7.72;;;23.20;85.10;;;;;;5077272;28;20219;-84
2021/07/18 02:35:32;;;;;;;9.32;7.28;;;23.20;85.30;;;;;;5059574;28;20040;-84
2021/07/18 02:37:58;;;;;;;8.75;7.38;;;23.20;85.20;;;;;;5077390;28;20136;-85
2021/07/18 02:40:24;;;;;;;10.32;7.88;;;23.20;85.30;;;;;;5059226;28;20036;-84
2021/07/18 02:42:51;;;;;;;11.55;7.65;;;23.20;85.40;;;;;;5059408;28;20035;-85
2021/07/18 02:45:19;;;;;;;8.88;7.30;;;23.20;85.60;;;;;;5077252;28;20389;-84
2021/07/18 02:47:46;;;;;;;9.27;7.82;;;23.20;85.80;;;;;;5058820;28;20037;-84
2021/07/18 02:50:14;;;;;;;9.57;7.57;;;23.20;86.20;;;;;;5092671;28;20117;-84
2021/07/18 02:52:44;;;;;;;10.57;7.63;;;23.30;86.20;;;;;;5058811;28;20045;-85
2021/07/18 02:55:11;;;;;;;9.95;7.68;;;23.40;86.30;;;;;;5059156;28;20048;-84
2021/07/18 02:57:37;;;;;;;10.32;7.65;;;23.40;86.30;;;;;;5092778;28;20536;-83
2021/07/18 03:00:12;;;;;;;10.13;7.70;;;23.40;86.10;;;;;;5093314;28;20041;-83
2021/07/18 03:02:38;;;;;;;11.80;8.27;;;23.50;86.90;;;;;;5092414;28;20029;-84
2021/07/18 03:05:05;;;;;;;9.30;7.97;;;23.50;85.80;;;;;;5077048;28;20079;-84
2021/07/18 03:07:31;;;;;;;10.25;8.50;;;23.50;85.60;;;;;;5092469;28;20044;-84
2021/07/18 03:09:59;;;;;;;9.30;7.90;;;23.60;85.70;;;;;;5076929;28;20036;-84
2021/07/18 03:12:24;;;;;;;9.27;7.90;;;23.60;85.70;;;;;;5076524;28;20113;-84
2021/07/18 03:14:50;;;;;;;9.73;8.27;;;23.60;85.80;;;;;;5077135;28;20064;-82
2021/07/18 03:17:16;;;;;;;9.23;7.85;;;23.60;85.60;;;;;;5092278;28;20036;-83
2021/07/18 03:19:42;;;;;;;9.98;8.27;;;23.70;85.40;;;;;;5076691;28;20056;-82
2021/07/18 03:22:07;;;;;;;10.15;8.70;;;23.70;85.20;;;;;;5058967;28;20037;-83
2021/07/18 03:24:33;;;;;;;10.82;8.80;;;23.70;85.70;;;;;;5058230;28;20432;-84
2021/07/18 03:26:59;;;;;;;9.48;8.43;;;23.70;85.20;;;;;;5092084;28;20033;-85
2021/07/18 03:29:26;;;;;;;9.77;8.10;;;23.70;85.00;;;;;;5091789;28;20477;-85
2021/07/18 03:31:53;;;;;;;9.48;8.10;;;23.70;85.20;;;;;;5075766;28;20405;-84
2021/07/18 03:34:19;;;;;;;10.63;7.78;;;23.80;85.10;;;;;;5075713;28;20112;-84
2021/07/18 03:36:45;;;;;;;9.77;8.00;;;23.80;85.00;;;;;;5075264;28;20056;-85
2021/07/18 03:39:10;;;;;;;11.18;8.60;;;23.90;84.80;;;;;;5057798;28;20071;-84
2021/07/18 03:41:36;;;;;;;9.75;8.02;;;24.00;84.70;;;;;;5057830;28;20025;-85
2021/07/18 03:44:02;;;;;;;11.93;8.35;;;24.00;84.40;;;;;;5057393;28;20033;-85
2021/07/18 03:46:28;;;;;;;10.75;8.55;;;24.00;84.30;;;;;;5090809;28;20032;-86
2021/07/18 03:48:54;;;;;;;10.85;8.98;;;24.10;84.10;;;;;;5091376;28;20466;-85
2021/07/18 03:51:19;;;;;;;10.30;8.57;;;24.10;83.90;;;;;;5075530;28;20033;-85
2021/07/18 03:53:45;;;;;;;11.15;8.90;;;24.20;83.90;;;;;;5057513;28;20039;-85
2021/07/18 03:56:11;;;;;;;10.68;9.25;;;24.20;83.80;;;;;;5075262;28;20032;-84
2021/07/18 03:58:38;;;;;;;11.98;8.40;;;24.20;83.80;;;;;;5057414;28;20032;-84
2021/07/18 04:01:10;;;;;;;9.77;8.25;;;24.30;83.80;;;;;;5075053;28;20517;-85
2021/07/18 04:03:36;;;;;;;10.35;8.63;;;24.30;83.80;;;;;;5090942;28;20475;-85
2021/07/18 04:06:03;;;;;;;10.10;7.90;;;24.30;83.80;;;;;;5075040;28;20041;-84
2021/07/18 04:08:29;;;;;;;9.93;7.70;;;24.40;83.60;;;;;;5075162;28;20482;-84
2021/07/18 04:10:55;;;;;;;10.77;8.27;;;24.50;83.50;;;;;;5075299;28;20032;-85
2021/07/18 04:13:20;;;;;;;11.25;8.65;;;24.50;83.50;;;;;;5090781;28;20514;-83
2021/07/18 04:15:46;;;;;;;12.90;8.57;;;24.60;83.40;;;;;;5074774;28;20050;-84
2021/07/18 04:18:12;;;;;;;10.43;8.68;;;24.60;83.20;;;;;;5074680;28;20060;-83
2021/07/18 04:20:38;;;;;;;8.82;7.68;;;24.70;83.20;;;;;;5090731;28;20064;-84
2021/07/18 04:23:04;;;;;;;9.48;8.02;;;24.70;83.00;;;;;;5056969;28;20401;-83
2021/07/18 04:25:30;;;;;;;10.60;8.40;;;24.80;83.00;;;;;;5090394;28;20070;-83
2021/07/18 04:27:56;;;;;;;10.90;8.65;;;24.90;82.90;;;;;;5074443;28;20486;-84
2021/07/18 04:30:22;;;;;;;9.88;8.25;;;24.90;82.50;;;;;;5089953;28;20127;-84
2021/07/18 04:32:49;;;;;;;10.43;8.30;;;25.00;82.60;;;;;;5056903;28;20033;-84
2021/07/18 04:35:14;;;;;;;10.93;8.05;;;25.00;82.50;;;;;;5089881;28;20038;-83
2021/07/18 04:37:40;;;;;;;9.93;8.70;;;25.10;82.50;;;;;;5074273;28;20119;-84
2021/07/18 04:40:07;;;;;;;9.23;7.95;;;25.10;82.20;;;;;;5056447;28;20032;-84
2021/07/18 04:42:33;;;;;;;8.75;7.57;;;25.10;82.10;;;;;;5056422;28;20389;-83
2021/07/18 04:44:59;;;;;;;10.35;8.30;;;25.20;82.00;;;;;;5074180;28;20033;-83
2021/07/18 04:47:25;;;;;;;10.07;8.50;;;25.20;82.00;;;;;;5074362;28;20040;-84
2021/07/18 04:49:52;;;;;;;10.98;8.32;;;25.20;81.90;;;;;;5074069;28;20025;-83
2021/07/18 04:52:18;;;;;;;11.13;8.30;;;25.20;81.80;;;;;;5074306;28;20401;-83
2021/07/18 04:54:44;;;;;;;8.98;7.50;;;25.20;81.80;;;;;;5090043;28;20033;-84
2021/07/18 04:57:10;;;;;;;8.27;7.32;;;25.30;81.70;;;;;;5074525;28;20032;-84
2021/07/18 04:59:36;;;;;;;11.80;8.30;;;25.40;81.30;;;;;;5090161;28;20055;-84
2021/07/18 05:02:02;;;;;;;10.45;8.77;;;25.50;81.20;;;;;;5076087;28;20061;-85
2021/07/18 05:04:28;;;;;;;10.75;8.98;;;25.50;81.00;;;;;;5054131;28;20099;-85
2021/07/18 05:06:54;;;;;;;10.52;8.88;;;25.60;80.80;;;;;;5036220;28;20424;-84
2021/07/18 05:09:21;;;;;;;10.85;8.50;;;25.60;80.70;;;;;;5069098;28;20067;-86
2021/07/18 05:11:46;;;;;;;10.43;8.48;;;25.60;80.80;;;;;;5069072;28;20037;-85
2021/07/18 05:14:14;;;;;;;9.45;8.43;;;25.70;80.60;;;;;;5070629;28;20029;-85
2021/07/18 05:16:39;;;;;;;9.90;8.27;;;25.70;80.40;;;;;;5056377;28;20450;-84
2021/07/18 05:19:05;;;;;;;9.18;8.13;;;25.80;80.30;;;;;;5054491;28;20131;-85
2021/07/18 05:21:31;;;;;;;11.85;8.20;;;25.90;80.10;;;;;;5055669;28;20037;-84
2021/07/18 05:23:59;;;;;;;10.30;7.93;;;26.00;79.90;;;;;;5072874;28;20486;-84
2021/07/18 05:26:26;;;;;;;10.52;8.05;;;26.00;79.50;;;;;;5055258;28;20040;-86
2021/07/18 05:28:52;;;;;;;11.00;8.65;;;26.10;79.30;;;;;;5055262;28;20033;-85
2021/07/18 05:31:17;;;;;;;11.07;8.23;;;26.20;79.00;;;;;;5055188;28;20099;-85
2021/07/18 05:33:43;;;;;;;10.98;8.85;;;26.30;78.80;;;;;;5055177;28;20466;-84
2021/07/18 05:36:11;;;;;;;9.52;7.97;;;26.30;78.60;;;;;;5088590;28;20037;-82
2021/07/18 05:38:37;;;;;;;58.80;42.58;;;26.30;78.40;;;;;;5073574;28;20025;-91
2021/07/18 05:41:04;;;;;;;28.20;22.00;;;26.40;78.40;;;;;;5055014;28;20043;-93
2021/07/18 05:43:29;;;;;;;21.23;16.75;;;26.50;78.20;;;;;;5054752;28;20043;-88
2021/07/18 05:45:55;;;;;;;16.88;13.25;;;26.60;78.00;;;;;;5073119;28;20033;-89
2021/07/18 05:48:24;;;;;;;14.02;11.77;;;26.70;77.80;;;;;;5073184;28;20048;-88
2021/07/18 05:50:53;;;;;;;12.57;10.95;;;26.80;77.60;;;;;;5054328;28;20102;-85
2021/07/18 05:53:19;;;;;;;11.57;9.50;;;26.80;77.50;;;;;;5073843;28;20510;-84
2021/07/18 05:55:45;;;;;;;11.35;9.23;;;26.90;77.30;;;;;;5055426;28;20044;-85
2021/07/18 05:58:12;;;;;;;9.18;7.97;;;27.00;76.90;;;;;;5088095;28;20032;-87
2021/07/18 06:00:40;;;;;;;10.13;8.55;;;27.10;76.70;;;;;;5052810;28;20120;-85
2021/07/18 06:03:07;;;;;;;15.35;8.43;;;27.20;76.50;;;;;;5072939;28;20105;-85
2021/07/18 06:05:34;;;;;;;9.30;8.05;;;27.30;76.40;;;;;;5069252;28;20083;-88
2021/07/18 06:08:01;;;;;;;10.40;8.50;;;27.40;76.30;;;;;;5051769;28;20040;-86
2021/07/18 06:10:27;;;;;;;10.45;8.57;;;27.60;76.20;;;;;;5069718;28;20068;-87
2021/07/18 06:12:52;;;;;;;10.65;8.70;;;27.60;75.90;;;;;;5051596;28;20127;-87
2021/07/18 06:15:18;;;;;;;96.07;68.07;;;27.70;75.60;;;;;;5052392;28;20063;-90
2021/07/18 06:17:44;;;;;;;41.63;34.30;;;27.90;75.50;;;;;;5075080;28;20032;-86
2021/07/18 06:20:11;;;;;;;26.60;22.25;;;28.00;74.80;;;;;;5054749;28;20147;-86
2021/07/18 06:22:37;;;;;;;20.00;16.85;;;28.00;74.60;;;;;;5052401;28;20068;-87
2021/07/18 06:25:05;;;;;;;18.15;15.20;;;28.10;74.50;;;;;;5072477;28;20087;-85
2021/07/18 06:27:32;;;;;;;13.88;12.38;;;28.30;74.30;;;;;;5054479;28;20461;-85
2021/07/18 06:29:58;;;;;;;14.07;11.50;;;28.30;73.90;;;;;;5073565;28;20024;-89
2021/07/18 06:32:25;;;;;;;13.93;11.10;;;28.40;73.80;;;;;;5058864;28;20077;-87
2021/07/18 06:34:51;;;;;;;13.73;11.02;;;28.60;73.60;;;;;;5059712;28;20060;-89
2021/07/18 06:37:17;;;;;;;12.20;10.13;;;28.70;73.30;;;;;;5077106;28;20454;-88
2021/07/18 06:39:43;;;;;;;12.07;9.95;;;28.80;73.00;;;;;;5077170;28;20359;-88
2021/07/18 06:42:08;;;;;;;11.75;9.73;;;28.90;72.60;;;;;;5060420;28;20048;-89
2021/07/18 06:44:34;;;;;;;9.00;8.02;;;29.00;72.30;;;;;;5061015;28;20049;-88
2021/07/18 06:47:00;;;;;;;8.57;7.53;;;29.10;71.80;;;;;;5078480;28;20051;-90
2021/07/18 06:49:25;;;;;;;11.50;8.02;;;29.20;71.40;;;;;;5082345;28;20032;-89
2021/07/18 06:51:51;;;;;;;8.82;7.80;;;29.30;71.00;;;;;;5060158;28;20096;-90
2021/07/18 06:54:17;;;;;;;8.18;7.07;;;29.40;70.50;;;;;;5066035;28;20037;-90
2021/07/18 06:56:50;;;;;;;8.00;6.60;;;29.50;70.40;;;;;;5081340;28;20469;-88
2021/07/18 06:59:16;;;;;;;8.40;6.68;;;29.70;70.20;;;;;;5075624;28;20044;-89
2021/07/18 07:01:42;;;;;;;7.78;6.75;;;29.70;69.70;;;;;;5084935;28;20037;-87
2021/07/18 07:04:11;;;;;;;9.68;7.20;;;29.90;69.90;;;;;;5071321;28;20465;-88
2021/07/18 07:06:37;;;;;;;9.05;7.03;;;30.00;69.70;;;;;;5062854;28;20045;-89
2021/07/18 07:09:03;;;;;;;10.48;7.47;;;30.10;69.40;;;;;;5091023;28;20040;-89
2021/07/18 07:11:29;;;;;;;10.63;8.32;;;30.20;69.30;;;;;;5067730;28;20052;-89
2021/07/18 07:13:55;;;;;;;10.38;7.68;;;30.30;69.00;;;;;;5078174;28;20028;-90
2021/07/18 07:16:20;;;;;;;8.30;6.97;;;30.40;68.50;;;;;;5060281;28;20052;-89
2021/07/18 07:18:47;;;;;;;8.45;6.88;;;30.60;67.90;;;;;;5077385;28;20058;-90
2021/07/18 07:21:17;;;;;;;7.13;6.20;;;30.70;67.50;;;;;;5076617;28;20048;-91
2021/07/18 07:23:43;;;;;;;8.30;6.63;;;30.80;67.40;;;;;;5057649;28;20044;-88
2021/07/18 07:26:09;;;;;;;7.20;6.50;;;30.90;67.00;;;;;;5076863;28;20059;-89
2021/07/18 07:28:35;;;;;;;10.57;8.13;;;31.00;66.80;;;;;;5058556;28;20060;-89
2021/07/18 07:31:02;;;;;;;8.77;7.32;;;31.10;66.10;;;;;;5042579;28;20383;-88
2021/07/18 07:33:29;;;;;;;7.90;6.80;;;31.10;65.70;;;;;;5054633;28;20028;-88
2021/07/18 07:35:55;;;;;;;10.23;8.10;;;31.20;65.90;;;;;;5056968;28;20477;-91
2021/07/18 07:38:21;;;;;;;9.10;7.95;;;31.30;66.00;;;;;;5074208;28;20064;-90
2021/07/18 07:40:47;;;;;;;9.90;7.40;;;31.50;65.90;;;;;;5055039;28;20462;-90
2021/07/18 07:43:13;;;;;;;9.20;7.60;;;31.60;65.70;;;;;;5073160;28;20473;-90
2021/07/18 07:45:39;;;;;;;9.73;7.07;;;31.70;65.50;;;;;;5072557;28;20414;-91
2021/07/18 07:48:05;;;;;;;8.05;6.88;;;31.80;64.90;;;;;;5055098;28;20554;-92
2021/07/18 07:50:31;;;;;;;9.25;7.20;;;31.90;64.50;;;;;;5054623;28;20115;-91
2021/07/18 07:52:58;;;;;;;7.75;6.30;;;31.90;64.00;;;;;;5055616;28;20033;-90
2021/07/18 07:55:24;;;;;;;6.78;6.10;;;32.00;63.60;;;;;;5057888;28;20457;-92
2021/07/18 07:57:50;;;;;;;6.47;5.32;;;32.00;62.90;;;;;;5055268;28;20036;-91
2021/07/18 08:00:17;;;;;;;7.95;6.03;;;32.10;62.90;;;;;;5055601;28;20035;-88
2021/07/18 08:02:46;;;;;;;6.90;5.97;;;32.20;62.90;;;;;;5072565;28;20025;-90
2021/07/18 08:05:12;;;;;;;5.80;5.13;;;32.30;62.40;;;;;;5054988;28;20079;-92
2021/07/18 08:07:38;;;;;;;6.88;5.28;;;32.40;62.20;;;;;;5054814;28;20375;-91
2021/07/18 08:10:16;;;;;;;5.80;5.20;;;32.50;61.90;;;;;;5054767;28;20039;-92
2021/07/18 08:12:43;;;;;;;5.07;4.57;;;32.60;61.60;;;;;;5077429;28;20040;-92
2021/07/18 08:15:10;;;;;;;5.80;4.95;;;32.70;60.80;;;;;;5074015;28;20120;-90
2021/07/18 08:17:39;;;;;;;5.22;4.72;;;32.80;60.20;;;;;;5093276;28;20071;-91
2021/07/18 08:20:14;;;;;;;5.00;4.50;;;32.90;60.60;;;;;;5054957;28;20366;-88
2021/07/18 08:22:41;;;;;;;6.15;5.55;;;33.10;56.90;;;;;;5056340;28;20036;-91
2021/07/18 08:25:08;;;;;;;5.78;5.18;;;33.50;61.20;;;;;;5071997;28;20037;-89
2021/07/18 08:27:35;;;;;;;5.88;5.28;;;33.70;60.60;;;;;;5054856;28;20055;-90
2021/07/18 08:30:03;;;;;;;6.05;5.43;;;34.00;60.80;;;;;;5055328;28;20114;-90
2021/07/18 08:32:29;;;;;;;6.78;6.03;;;34.30;60.20;;;;;;5054509;28;20059;-90
2021/07/18 08:34:55;;;;;;;6.43;5.75;;;34.50;60.00;;;;;;5059592;28;20119;-90
2021/07/18 08:37:20;;;;;;;6.07;5.47;;;34.90;59.60;;;;;;5064956;28;20119;-90
2021/07/18 08:39:51;;;;;;;5.93;5.32;;;35.20;59.60;;;;;;5085429;28;20036;-89
2021/07/18 08:42:19;;;;;;;6.35;5.75;;;35.60;59.30;;;;;;5085004;28;20461;-87
2021/07/18 08:44:45;;;;;;;6.10;5.50;;;36.00;58.80;;;;;;5072216;28;20039;-89
2021/07/18 08:47:11;;;;;;;5.43;4.93;;;36.30;57.80;;;;;;5065828;28;20040;-89
2021/07/18 08:49:38;;;;;;;5.75;5.15;;;36.60;57.60;;;;;;5063858;28;20127;-90
2021/07/18 08:52:04;;;;;;;5.55;5.05;;;36.90;57.40;;;;;;5073879;28;20060;-91
2021/07/18 08:54:34;;;;;;;5.50;5.00;;;37.20;56.10;;;;;;5057104;28;20060;-90
2021/07/18 08:57:07;;;;;;;5.57;5.07;;;37.40;54.50;;;;;;5064381;28;20100;-91
2021/07/18 08:59:35;;;;;;;5.90;5.40;;;37.60;54.90;;;;;;5044684;28;20041;-91
2021/07/18 09:02:02;;;;;;;6.03;5.43;;;37.80;54.00;;;;;;5075944;28;20083;-90
2021/07/18 09:04:28;;;;;;;5.18;4.68;;;37.90;53.00;;;;;;5053949;28;20470;-91
2021/07/18 09:06:54;;;;;;;6.05;4.90;;;38.00;52.50;;;;;;5053933;28;20100;-91
2021/07/18 09:09:23;;;;;;;5.50;5.00;;;38.10;52.00;;;;;;5038124;28;20132;-90
2021/07/18 09:12:01;;;;;;;5.65;4.82;;;38.20;51.00;;;;;;5072382;28;20036;-92
2021/07/18 09:14:45;;;;;;;6.15;5.45;;;38.40;48.40;;;;;;5072249;28;20052;-91
2021/07/18 09:17:14;;;;;;;5.75;5.25;;;38.40;49.10;;;;;;5061818;28;20489;-91
2021/07/18 09:19:42;;;;;;;5.28;4.70;;;38.50;49.40;;;;;;5058281;28;20041;-93
2021/07/18 09:22:24;;;;;;;4.77;4.30;;;38.50;49.10;;;;;;5056598;28;20045;-93
2021/07/18 09:25:08;;;;;;;5.25;4.78;;;38.70;48.80;;;;;;5066918;28;20041;-95
2021/07/18 09:28:29;;;;;;;;;;;;;;;;;;;;;
2021/07/18 09:31:40;;;;;;;;;;;;;;;;;;;;;
2021/07/18 09:34:33;;;;;;;5.82;4.97;;;39.10;46.00;;;;;;5075655;28;20119;-93
2021/07/18 09:37:23;;;;;;;;;;;;;;;;;;;;;
2021/07/18 09:39:58;;;;;;;5.43;4.82;;;39.10;46.10;;;;;;5075921;28;20092;-91
2021/07/18 09:42:48;;;;;;;5.43;4.93;;;39.20;46.80;;;;;;5073747;28;20036;-91
2021/07/18 09:45:27;;;;;;;6.05;5.55;;;39.40;44.50;;;;;;5049956;28;20482;-87
2021/07/18 09:47:56;;;;;;;5.53;5.03;;;39.50;46.10;;;;;;5057809;28;20438;-88
2021/07/18 09:50:46;;;;;;;5.55;5.05;;;39.70;45.50;;;;;;5081208;28;20044;-89
2021/07/18 09:53:26;;;;;;;5.95;5.30;;;39.80;45.10;;;;;;5075386;28;20044;-88
2021/07/18 09:56:00;;;;;;;5.80;5.30;;;40.00;44.50;;;;;;5068111;28;20032;-91
2021/07/18 09:58:27;;;;;;;6.03;5.50;;;40.00;41.70;;;;;;5071240;28;20044;-92
2021/07/18 10:00:53;;;;;;;5.60;5.10;;;40.00;44.20;;;;;;5054691;28;20108;-93
2021/07/18 10:03:23;;;;;;;5.63;5.05;;;40.10;44.20;;;;;;5052985;28;20083;-90
2021/07/18 10:06:09;;;;;;;5.43;4.82;;;40.20;43.90;;;;;;5064654;28;20402;-92
2021/07/18 10:08:41;;;;;;;5.72;5.20;;;40.30;39.90;;;;;;5076574;28;20115;-92
2021/07/18 10:11:30;;;;;;;6.05;5.30;;;40.40;43.40;;;;;;5072493;28;20028;-91
2021/07/18 10:14:05;;;;;;;5.70;5.20;;;40.50;42.30;;;;;;5073838;28;20043;-91
2021/07/18 10:16:32;;;;;;;6.10;5.50;;;40.60;42.70;;;;;;5086595;28;20084;-90
2021/07/18 10:19:03;;;;;;;6.97;6.38;;;40.60;43.10;;;;;;5078264;28;20393;-90
2021/07/18 10:21:42;;;;;;;6.30;5.70;;;40.80;42.40;;;;;;5077791;28;20029;-90
2021/07/18 10:24:21;;;;;;;5.88;5.38;;;40.90;42.00;;;;;;5078822;28;20045;-90
2021/07/18 10:26:48;;;;;;;6.82;6.22;;;40.90;41.60;;;;;;5078990;28;20087;-91
2021/07/18 10:29:15;;;;;;;6.38;5.78;;;40.90;42.30;;;;;;5082730;28;20063;-91
2021/07/18 10:31:51;;;;;;;6.35;5.75;;;41.00;42.30;;;;;;5081261;28;20048;-90
2021/07/18 10:34:43;;;;;;;6.00;5.40;;;41.20;40.20;;;;;;5062964;28;20183;-90
2021/07/18 10:38:00;;;;;;;6.45;5.85;;;41.30;40.10;;;;;;5069930;28;20032;-92
2021/07/18 10:40:29;;;;;;;6.28;5.68;;;41.40;39.90;;;;;;5063380;28;20043;-92
2021/07/18 10:42:55;;;;;;;6.32;5.68;;;41.40;41.50;;;;;;5061050;28;20048;-91
2021/07/18 10:45:27;;;;;;;6.15;5.65;;;41.50;41.20;;;;;;5060565;28;20036;-90
2021/07/18 10:48:05;;;;;;;6.05;5.55;;;41.80;40.90;;;;;;5058888;28;20029;-89
2021/07/18 10:50:43;;;;;;;6.45;5.85;;;42.00;39.00;;;;;;5065324;28;20036;-91
2021/07/18 10:53:33;;;;;;;6.50;5.90;;;42.10;39.20;;;;;;5062068;28;20095;-91
2021/07/18 10:56:01;;;;;;;6.35;5.75;;;42.20;38.90;;;;;;5087536;28;20037;-91
2021/07/18 10:58:39;;;;;;;5.97;5.47;;;42.30;40.10;;;;;;5059694;28;20045;-91
2021/07/18 11:01:24;;;;;;;5.93;5.43;;;42.40;37.70;;;;;;5066101;28;20032;-91
2021/07/18 11:03:50;;;;;;;6.82;6.18;;;42.40;37.60;;;;;;5078554;28;20528;-91
2021/07/18 11:06:25;;;;;;;6.60;6.00;;;42.40;39.50;;;;;;5065757;28;20447;-92
2021/07/18 11:09:17;;;;;;;6.13;5.60;;;42.40;39.20;;;;;;5078857;28;20032;-91
2021/07/18 11:11:57;;;;;;;6.40;5.80;;;42.50;38.70;;;;;;5063182;28;20035;-92
2021/07/18 11:14:28;;;;;;;6.53;5.70;;;42.70;39.30;;;;;;5059604;28;20131;-91
2021/07/18 11:16:57;;;;;;;6.43;5.82;;;42.70;39.00;;;;;;5075612;28;20175;-91
2021/07/18 11:19:35;;;;;;;;;;;42.90;39.10;;;;;;5059714;28;20048;-91
2021/07/18 11:22:08;;;;;;;;;;;42.60;36.90;;;;;;5080559;28;19915;-88
2021/07/18 11:24:55;;;;;;;6.70;6.03;;;42.40;36.40;;;;;;5078890;28;19923;-90
2021/07/18 11:27:28;;;;;;;6.20;5.60;;;42.60;37.50;;;;;;5053931;28;20034;-87
2021/07/18 11:30:00;;;;;;;6.32;5.72;;;42.70;37.70;;;;;;5056077;28;20630;-87
2021/07/18 11:32:29;;;;;;;6.57;5.97;;;42.50;38.80;;;;;;5053534;28;20033;-89
2021/07/18 11:34:59;;;;;;;7.00;5.70;;;42.50;38.80;;;;;;5052600;28;20072;-90
2021/07/18 11:37:27;;;;;;;6.65;6.05;;;42.60;38.60;;;;;;5059572;28;20123;-92
2021/07/18 11:40:04;;;;;;;6.13;5.53;;;42.80;38.50;;;;;;5053429;28;20029;-92
2021/07/18 11:42:30;;;;;;;5.80;5.20;;;43.10;37.50;;;;;;5073826;28;20050;-90
2021/07/18 11:44:55;;;;;;;6.38;5.88;;;43.20;38.10;;;;;;5055036;28;20095;-91
2021/07/18 11:47:23;;;;;;;6.70;6.00;;;43.30;37.90;;;;;;5054923;28;20107;-90
2021/07/18 11:50:16;;;;;;;5.90;5.40;;;43.50;37.80;;;;;;5065479;28;20044;-90
2021/07/18 11:52:42;;;;;;;6.53;5.90;;;43.50;35.70;;;;;;5063183;28;20123;-89
2021/07/18 11:55:10;;;;;;;6.68;6.07;;;43.30;37.20;;;;;;5053759;28;20036;-88
2021/07/18 11:57:42;;;;;;;6.75;6.00;;;43.20;37.30;;;;;;5053210;28;20029;-90
2021/07/18 12:00:08;;;;;;;7.13;6.50;;;43.30;37.30;;;;;;5053411;28;20035;-91
2021/07/18 12:02:34;;;;;;;6.30;5.70;;;43.20;37.20;;;;;;5050784;28;20107;-90
2021/07/18 12:05:05;;;;;;;6.28;5.68;;;43.20;37.20;;;;;;5054080;28;20115;-90
2021/07/18 12:07:31;;;;;;;6.32;5.78;;;43.20;36.20;;;;;;5071297;28;20028;-90
2021/07/18 12:09:57;;;;;;;6.53;5.82;;;43.10;36.80;;;;;;5051252;28;20029;-88
2021/07/18 12:12:23;;;;;;;5.80;5.30;;;43.00;37.10;;;;;;5055623;28;20115;-91
2021/07/18 12:14:54;;;;;;;6.53;5.93;;;43.00;37.00;;;;;;5069899;28;20052;-92
2021/07/18 12:17:23;;;;;;;6.78;6.13;;;43.20;36.40;;;;;;5046859;28;20108;-90
2021/07/18 12:19:55;;;;;;;6.50;5.90;;;43.40;36.80;;;;;;5054599;28;20025;-89
2021/07/18 12:22:25;;;;;;;7.05;6.35;;;43.60;36.60;;;;;;5072778;28;20067;-89
2021/07/18 12:24:54;;;;;;;6.18;5.68;;;43.70;36.60;;;;;;5038409;28;20079;-90
2021/07/18 12:27:22;;;;;;;6.85;6.25;;;43.80;36.40;;;;;;5053554;28;20075;-90
2021/07/18 12:29:51;;;;;;;6.40;5.80;;;43.80;35.90;;;;;;5072638;28;20036;-91
2021/07/18 12:32:19;;;;;;;6.43;5.93;;;44.00;35.90;;;;;;5054982;28;20410;-91
2021/07/18 12:34:49;;;;;;;;;;;44.00;35.60;;;;;;5073209;28;20469;-91
2021/07/18 12:37:19;;;;;;;6.25;5.75;;;43.80;33.60;;;;;;5054390;28;19912;-89
2021/07/18 12:40:10;;;;;;;6.32;5.80;;;43.80;35.50;;;;;;5054627;28;20041;-89
2021/07/18 12:42:43;;;;;;;6.82;6.07;;;44.00;35.60;;;;;;5073118;28;20033;-90
2021/07/18 12:45:15;;;;;;;7.75;6.13;;;44.00;36.10;;;;;;5072229;28;20525;-90
2021/07/18 12:47:50;;;;;;;6.70;6.10;;;44.10;35.60;;;;;;5072817;28;20055;-91
2021/07/18 12:50:37;;;;;;;6.88;6.15;;;44.20;35.40;;;;;;5054954;28;20036;-89
2021/07/18 12:53:17;;;;;;;6.65;6.05;;;44.20;33.60;;;;;;5054798;28;20037;-91
2021/07/18 12:56:00;;;;;;;17.00;6.72;;;44.20;34.20;;;;;;5056281;28;20064;-91
2021/07/18 12:58:34;;;;;;;6.43;5.90;;;44.10;35.20;;;;;;5059883;28;20045;-91